createdAt,value
2017-11-30T04:41:45.860Z,14.90
2017-11-30T04:44:12.639Z,14.32
2017-11-30T04:46:39.412Z,14.13
2017-11-30T04:49:06.256Z,10.50
2017-11-30T04:51:33.069Z,16.27
2017-11-30T04:54:00.778Z,9.15
2017-11-30T04:56:27.636Z,11.38
2017-11-30T04:58:54.479Z,13.57
2017-11-30T05:01:21.239Z,12.35
2017-11-30T05:03:48.062Z,14.77
2017-11-30T05:06:14.842Z,15.23
2017-11-30T05:08:41.619Z,11.57
2017-11-30T05:11:08.424Z,14.93
2017-11-30T05:13:35.185Z,16.17
2017-11-30T05:16:01.961Z,12.35
2017-11-30T05:18:28.745Z,14.30
2017-11-30T05:20:55.550Z,15.43
2017-11-30T05:23:22.295Z,15.77
2017-11-30T05:25:49.142Z,19.67
2017-11-30T05:28:15.955Z,14.07
2017-11-30T05:30:42.752Z,11.55
2017-11-30T05:33:09.532Z,10.67
2017-11-30T05:35:36.300Z,12.80
2017-11-30T05:38:03.076Z,17.57
2017-11-30T05:40:29.894Z,14.10
2017-11-30T05:42:56.653Z,14.07
2017-11-30T05:45:23.423Z,13.07
2017-11-30T05:47:50.217Z,14.32
2017-11-30T05:50:16.960Z,19.57
2017-11-30T05:52:43.725Z,18.20
2017-11-30T05:55:10.602Z,12.23
2017-11-30T05:57:37.347Z,16.03
2017-11-30T06:00:04.127Z,17.07
2017-11-30T06:02:30.909Z,14.33
2017-11-30T06:04:57.650Z,15.50
2017-11-30T06:07:24.451Z,15.73
2017-11-30T06:09:51.261Z,13.95
2017-11-30T06:12:18.070Z,20.20
2017-11-30T06:14:44.820Z,15.90
2017-11-30T06:17:11.650Z,22.70
2017-11-30T06:19:38.423Z,18.90
2017-11-30T06:22:05.195Z,22.67
2017-11-30T06:24:32.001Z,24.53
2017-11-30T06:26:58.774Z,21.47
2017-11-30T06:29:25.539Z,29.80
2017-11-30T06:31:52.359Z,32.17
2017-11-30T06:34:19.213Z,26.70
2017-11-30T06:36:45.968Z,28.20
2017-11-30T06:39:12.771Z,30.07
2017-11-30T06:41:39.564Z,24.43
2017-11-30T06:44:06.347Z,35.90
2017-11-30T06:46:33.157Z,23.93
2017-11-30T06:48:59.945Z,31.17
2017-11-30T06:51:26.744Z,39.17
2017-11-30T06:53:53.546Z,25.77
2017-11-30T06:56:20.465Z,35.40
2017-11-30T06:58:47.208Z,36.73
2017-11-30T07:01:14.032Z,36.97
2017-11-30T07:03:40.827Z,30.95
2017-11-30T07:06:07.595Z,29.50
2017-11-30T07:08:34.401Z,33.47
2017-11-30T07:11:01.176Z,27.97
2017-11-30T07:13:27.927Z,26.93
2017-11-30T07:15:54.720Z,34.57
2017-11-30T07:18:21.518Z,29.20
2017-11-30T07:20:48.276Z,30.30
2017-11-30T07:23:15.077Z,28.57
2017-11-30T07:25:41.828Z,32.93
2017-11-30T07:28:08.588Z,34.70
2017-11-30T07:30:35.383Z,29.13
2017-11-30T07:33:02.187Z,23.77
2017-11-30T07:35:28.971Z,25.73
2017-11-30T07:37:55.816Z,35.03
2017-11-30T07:40:22.614Z,33.20
2017-11-30T07:42:49.384Z,41.60
2017-11-30T07:45:16.215Z,35.13
2017-11-30T07:47:43.010Z,31.03
2017-11-30T07:50:09.776Z,34.07
2017-11-30T07:52:36.591Z,31.43
2017-11-30T07:55:03.383Z,38.30
2017-11-30T07:57:30.151Z,32.37
2017-11-30T07:59:56.960Z,27.50
2017-11-30T08:02:23.739Z,30.97
2017-11-30T08:04:50.526Z,35.67
2017-11-30T08:07:17.305Z,34.77
2017-11-30T08:09:44.113Z,26.73
2017-11-30T08:12:10.895Z,31.20
2017-11-30T08:14:37.742Z,40.00
2017-11-30T08:17:04.531Z,32.17
2017-11-30T08:19:31.315Z,34.50
2017-11-30T08:21:58.109Z,36.70
2017-11-30T08:24:24.856Z,25.27
2017-11-30T08:26:51.604Z,27.83
2017-11-30T08:29:18.419Z,31.07
2017-11-30T08:31:45.200Z,38.93
2017-11-30T08:34:11.999Z,48.73
2017-11-30T08:36:38.800Z,34.07
2017-11-30T08:39:05.584Z,33.43
2017-11-30T08:41:32.405Z,28.03
2017-11-30T08:43:59.262Z,34.30
2017-11-30T08:46:26.026Z,33.80
2017-11-30T08:48:52.791Z,28.90
2017-11-30T08:51:19.581Z,27.30
2017-11-30T08:53:46.362Z,24.70
2017-11-30T08:56:13.176Z,29.23
2017-11-30T08:58:39.970Z,34.60
2017-11-30T09:01:06.762Z,31.63
2017-11-30T09:03:33.531Z,28.40
2017-11-30T09:06:00.335Z,29.17
2017-11-30T09:08:27.094Z,31.03
2017-11-30T09:10:53.832Z,27.20
2017-11-30T09:13:20.670Z,25.47
2017-11-30T09:15:47.447Z,34.10
2017-11-30T09:18:14.236Z,26.20
2017-11-30T09:20:41.036Z,35.20
2017-11-30T09:23:07.784Z,26.53
2017-11-30T09:25:34.606Z,33.03
2017-11-30T09:28:01.403Z,35.60
2017-11-30T09:30:28.185Z,35.73
2017-11-30T09:32:54.964Z,34.17
2017-11-30T09:35:21.756Z,33.63
2017-11-30T09:37:48.505Z,27.27
2017-11-30T09:40:15.280Z,20.97
2017-11-30T09:42:42.065Z,33.53
2017-11-30T09:45:08.832Z,32.53
2017-11-30T09:47:35.603Z,38.53
2017-11-30T09:50:02.428Z,29.13
2017-11-30T09:52:29.179Z,34.77
2017-11-30T09:54:56.043Z,27.00
2017-11-30T09:57:22.888Z,24.70
2017-11-30T09:59:49.680Z,29.57
2017-11-30T10:02:16.472Z,25.97
2017-11-30T10:04:43.361Z,34.07
2017-11-30T10:07:10.124Z,19.13
2017-11-30T10:09:36.891Z,35.10
2017-11-30T10:12:03.768Z,96.90
2017-11-30T10:14:30.562Z,29.33
2017-11-30T10:16:57.315Z,19.43
2017-11-30T10:19:24.119Z,18.20
2017-11-30T10:21:50.900Z,16.80
2017-11-30T10:24:17.653Z,18.90
2017-11-30T10:26:44.498Z,19.47
2017-11-30T10:29:11.252Z,23.17
2017-11-30T10:31:38.040Z,17.77
2017-11-30T10:34:04.827Z,19.73
2017-11-30T10:36:31.610Z,19.97
2017-11-30T10:38:58.373Z,19.77
2017-11-30T10:41:25.177Z,21.40
2017-11-30T10:43:51.952Z,22.00
2017-11-30T10:46:18.696Z,24.87
2017-11-30T10:48:45.500Z,18.07
2017-11-30T10:51:12.243Z,15.67
2017-11-30T10:53:39.014Z,24.37
2017-11-30T10:56:05.846Z,23.43
2017-11-30T10:58:32.609Z,21.80
2017-11-30T11:00:59.377Z,24.33
2017-11-30T11:03:26.180Z,22.90
2017-11-30T11:05:52.933Z,17.50
2017-11-30T11:08:19.704Z,18.63
2017-11-30T11:10:46.486Z,18.30
2017-11-30T11:13:13.229Z,17.57
2017-11-30T11:15:39.972Z,12.43
2017-11-30T11:18:06.768Z,11.77
2017-11-30T11:20:33.581Z,19.43
2017-11-30T11:23:00.328Z,14.63
2017-11-30T11:25:27.155Z,19.70
2017-11-30T11:27:53.920Z,13.30
2017-11-30T11:30:20.678Z,16.80
2017-11-30T11:32:47.457Z,23.13
2017-11-30T11:35:14.219Z,21.70
2017-11-30T11:37:40.989Z,16.80
2017-11-30T11:40:07.783Z,16.70
2017-11-30T11:42:34.544Z,22.23
2017-11-30T11:45:01.307Z,17.80
2017-11-30T11:47:28.098Z,19.90
2017-11-30T11:49:54.867Z,18.07
2017-11-30T11:52:21.647Z,27.97
2017-11-30T11:54:48.474Z,39.30
2017-11-30T11:57:15.234Z,21.17
2017-11-30T11:59:41.999Z,11.20
2017-11-30T12:02:08.781Z,17.93
2017-11-30T12:04:35.549Z,15.77
2017-11-30T12:07:02.326Z,14.90
2017-11-30T12:09:29.152Z,15.80
2017-11-30T12:11:55.908Z,17.30
2017-11-30T12:14:22.689Z,19.00
2017-11-30T12:16:49.492Z,18.23
2017-11-30T12:19:16.254Z,14.73
2017-11-30T12:21:42.992Z,12.20
2017-11-30T12:24:09.833Z,15.83
2017-11-30T12:26:36.627Z,14.73
2017-11-30T12:29:03.378Z,13.30
2017-11-30T12:31:30.219Z,21.17
2017-11-30T12:33:56.996Z,13.10
2017-11-30T12:36:23.783Z,17.80
2017-11-30T12:38:50.596Z,19.80
2017-11-30T12:41:17.380Z,18.27
2017-11-30T12:43:44.155Z,16.53
2017-11-30T12:46:10.962Z,23.77
2017-11-30T12:48:37.723Z,17.73
2017-11-30T12:51:04.484Z,20.57
2017-11-30T12:53:31.276Z,18.77
2017-11-30T12:55:58.024Z,22.83
2017-11-30T12:58:24.790Z,19.47
2017-11-30T13:00:51.602Z,20.13
2017-11-30T13:03:18.409Z,19.17
2017-11-30T13:05:45.198Z,18.40
2017-11-30T13:08:11.992Z,18.87
2017-11-30T13:10:38.816Z,18.70
2017-11-30T13:13:05.613Z,17.00
2017-11-30T13:15:32.430Z,31.87
2017-11-30T13:17:59.202Z,16.87
2017-11-30T13:20:26.748Z,17.60
2017-11-30T13:22:53.575Z,16.33
2017-11-30T13:25:20.356Z,19.80
2017-11-30T13:27:47.136Z,19.53
2017-11-30T13:30:13.979Z,26.15
2017-11-30T13:32:40.783Z,24.00
2017-11-30T13:35:07.586Z,17.20
2017-11-30T13:37:34.425Z,29.13
2017-11-30T13:40:01.179Z,17.03
2017-11-30T13:42:27.924Z,17.03
2017-11-30T13:44:54.728Z,27.13
2017-11-30T13:47:21.485Z,18.97
2017-11-30T13:49:48.239Z,21.27
2017-11-30T13:52:15.054Z,24.70
2017-11-30T13:54:41.851Z,20.17
2017-11-30T13:57:08.633Z,18.40
2017-11-30T13:59:35.414Z,19.73
2017-11-30T14:02:02.177Z,16.10
2017-11-30T14:04:28.939Z,18.57
2017-11-30T14:06:55.789Z,16.93
2017-11-30T14:09:22.557Z,21.70
2017-11-30T14:11:49.315Z,24.60
2017-11-30T14:14:16.099Z,17.40
2017-11-30T14:16:42.878Z,18.93
2017-11-30T14:19:10.322Z,16.17
2017-11-30T14:21:37.116Z,23.47
2017-11-30T14:24:03.885Z,20.67
2017-11-30T14:26:30.658Z,20.63
2017-11-30T14:28:57.486Z,26.77
2017-11-30T14:31:24.268Z,24.30
2017-11-30T14:33:51.085Z,18.57
2017-11-30T14:36:17.950Z,27.17
2017-11-30T14:38:44.714Z,17.37
2017-11-30T14:41:11.475Z,29.57
2017-11-30T14:43:38.289Z,19.77
2017-11-30T14:46:05.054Z,29.03
2017-11-30T14:48:31.806Z,24.30
2017-11-30T14:50:58.619Z,26.27
2017-11-30T14:53:25.400Z,30.93
2017-11-30T14:55:52.168Z,29.50
2017-11-30T14:58:18.984Z,25.67
2017-11-30T15:00:45.731Z,21.50
2017-11-30T15:03:12.552Z,30.47
2017-11-30T15:05:39.386Z,24.20
2017-11-30T15:08:06.169Z,26.43
2017-11-30T15:10:32.924Z,23.57
2017-11-30T15:12:59.738Z,31.03
2017-11-30T15:15:26.550Z,26.10
2017-11-30T15:17:53.310Z,24.27
2017-11-30T15:20:20.102Z,24.73
2017-11-30T15:22:46.890Z,31.20
2017-11-30T15:25:13.634Z,28.27
2017-11-30T15:27:40.425Z,24.30
2017-11-30T15:30:07.192Z,26.57
2017-11-30T15:32:33.943Z,31.33
2017-11-30T15:35:00.728Z,17.03
2017-11-30T15:37:27.502Z,29.93
2017-11-30T15:39:54.263Z,22.83
2017-11-30T15:42:21.055Z,27.90
2017-11-30T15:44:47.826Z,26.40
2017-11-30T15:47:14.566Z,26.83
2017-11-30T15:49:41.599Z,26.80
2017-11-30T15:52:08.355Z,24.63
2017-11-30T15:54:35.098Z,25.70
2017-11-30T15:57:01.923Z,26.20
2017-11-30T15:59:28.704Z,22.63
2017-11-30T16:01:55.494Z,35.10
2017-11-30T16:04:22.358Z,25.43
2017-11-30T16:06:49.114Z,24.43
2017-11-30T16:09:15.871Z,24.53
2017-11-30T16:11:42.655Z,23.57
2017-11-30T16:14:09.429Z,21.80
2017-11-30T16:16:36.186Z,38.20
2017-11-30T16:19:03.001Z,22.33
2017-11-30T16:21:29.770Z,40.80
2017-11-30T16:23:56.592Z,31.03
2017-11-30T16:26:23.438Z,25.67
2017-11-30T16:28:50.226Z,34.43
2017-11-30T16:31:16.991Z,23.47
2017-11-30T16:33:43.781Z,32.40
2017-11-30T16:36:10.563Z,33.00
2017-11-30T16:38:37.363Z,27.33
2017-11-30T16:41:04.171Z,25.13
2017-11-30T16:43:30.968Z,32.37
2017-11-30T16:45:58.009Z,32.33
2017-11-30T16:48:24.840Z,25.17
2017-11-30T16:50:51.613Z,27.70
2017-11-30T16:53:18.405Z,23.57
2017-11-30T16:55:45.223Z,26.97
2017-11-30T16:58:11.983Z,23.07
2017-11-30T17:00:38.853Z,30.03
2017-11-30T17:03:05.704Z,26.60
2017-11-30T17:05:32.479Z,29.80
2017-11-30T17:07:59.262Z,24.97
2017-11-30T17:10:26.074Z,29.97
2017-11-30T17:12:52.858Z,25.70
2017-11-30T17:15:19.627Z,27.47
2017-11-30T17:17:46.429Z,22.33
2017-11-30T17:20:13.186Z,26.60
2017-11-30T17:22:39.949Z,36.67
2017-11-30T17:25:06.834Z,28.67
2017-11-30T17:27:33.591Z,30.13
2017-11-30T17:30:00.498Z,28.70
2017-11-30T17:32:27.351Z,27.00
2017-11-30T17:34:54.077Z,27.97
2017-11-30T17:37:20.863Z,25.37
2017-11-30T17:39:47.675Z,24.17
2017-11-30T17:42:14.443Z,25.50
2017-11-30T17:44:41.218Z,26.37
2017-11-30T17:47:08.007Z,33.00
2017-11-30T17:49:34.791Z,34.00
2017-11-30T17:52:01.545Z,35.43
2017-11-30T17:54:28.353Z,23.27
2017-11-30T17:56:55.168Z,27.73
2017-11-30T17:59:21.907Z,30.80
2017-11-30T18:01:48.692Z,28.03
2017-11-30T18:04:15.443Z,37.60
2017-11-30T18:06:42.214Z,26.27
2017-11-30T18:09:09.071Z,32.93
2017-11-30T18:11:35.844Z,20.23
2017-11-30T18:14:02.675Z,25.20
2017-11-30T18:16:29.475Z,35.57
2017-11-30T18:18:56.247Z,30.43
2017-11-30T18:21:23.020Z,22.70
2017-11-30T18:23:49.819Z,22.40
2017-11-30T18:26:16.570Z,27.63
2017-11-30T18:28:43.337Z,29.67
2017-11-30T18:31:10.145Z,29.53
2017-11-30T18:33:36.914Z,30.53
2017-11-30T18:36:03.701Z,28.73
2017-11-30T18:38:30.519Z,19.70
2017-11-30T18:40:57.271Z,25.40
2017-11-30T18:43:24.066Z,36.67
2017-11-30T18:45:50.889Z,27.80
2017-11-30T18:48:17.643Z,25.00
2017-11-30T18:50:44.411Z,27.43
2017-11-30T18:53:11.268Z,27.50
2017-11-30T18:55:38.060Z,35.30
2017-11-30T18:58:04.853Z,28.00
2017-11-30T19:00:31.631Z,26.80
2017-11-30T19:02:58.415Z,27.10
2017-11-30T19:05:25.177Z,27.13
2017-11-30T19:07:51.978Z,28.50
2017-11-30T19:10:18.722Z,34.50
2017-11-30T19:12:45.479Z,31.63
2017-11-30T19:15:12.298Z,45.73
2017-11-30T19:17:39.059Z,30.13
2017-11-30T19:20:05.846Z,27.17
2017-11-30T19:22:32.626Z,35.63
2017-11-30T19:24:59.421Z,26.50
2017-11-30T19:27:26.216Z,32.27
2017-11-30T19:29:53.031Z,27.30
2017-11-30T19:32:19.816Z,30.03
2017-11-30T19:34:46.622Z,25.57
2017-11-30T19:37:13.437Z,43.00
2017-11-30T19:39:40.188Z,32.70
2017-11-30T19:42:06.991Z,43.30
2017-11-30T19:44:33.795Z,33.27
2017-11-30T19:47:00.586Z,37.47
2017-11-30T19:49:27.403Z,36.50
2017-11-30T19:51:54.238Z,54.90
2017-11-30T19:54:21.020Z,49.70
2017-11-30T19:56:47.818Z,53.93
2017-11-30T19:59:14.608Z,72.60
2017-11-30T20:01:41.390Z,46.97
2017-11-30T20:04:08.210Z,54.57
2017-11-30T20:06:35.028Z,32.63
2017-11-30T20:09:01.793Z,37.87
2017-11-30T20:11:28.588Z,27.57
2017-11-30T20:13:55.416Z,27.97
2017-11-30T20:16:22.175Z,29.70
2017-11-30T20:18:48.931Z,38.77
2017-11-30T20:21:15.795Z,36.13
2017-11-30T20:23:42.594Z,32.90
2017-11-30T20:26:09.377Z,26.30
2017-11-30T20:28:36.155Z,26.83
2017-11-30T20:31:02.935Z,25.93
2017-11-30T20:33:29.690Z,28.53
2017-11-30T20:35:56.499Z,32.67
2017-11-30T20:38:23.302Z,26.93
2017-11-30T20:40:50.079Z,35.77
2017-11-30T20:43:16.888Z,31.50
2017-11-30T20:45:43.699Z,32.93
2017-11-30T20:48:10.475Z,22.37
2017-11-30T20:50:37.290Z,25.87
2017-11-30T20:53:04.060Z,43.20
2017-11-30T20:55:30.823Z,34.13
2017-11-30T20:57:57.618Z,29.30
2017-11-30T21:00:24.372Z,32.00
2017-11-30T21:02:51.135Z,30.80
2017-11-30T21:05:17.957Z,36.53
2017-11-30T21:07:44.761Z,37.00
2017-11-30T21:10:11.545Z,36.50
2017-11-30T21:12:38.362Z,41.13
2017-11-30T21:15:05.139Z,36.47
2017-11-30T21:17:31.890Z,49.67
2017-11-30T21:19:58.709Z,45.58
2017-11-30T21:22:25.485Z,40.53
2017-11-30T21:24:52.284Z,38.30
2017-11-30T21:27:19.101Z,67.75
2017-11-30T21:29:45.881Z,40.85
2017-11-30T21:32:12.689Z,36.23
2017-11-30T21:34:39.486Z,31.17
2017-11-30T21:37:06.295Z,35.27
2017-11-30T21:39:33.043Z,28.23
2017-11-30T21:41:59.848Z,35.08
2017-11-30T21:44:26.592Z,27.00
2017-11-30T21:46:53.360Z,25.27
2017-11-30T21:49:20.229Z,28.30
2017-11-30T21:51:46.997Z,26.50
2017-11-30T21:54:13.747Z,32.23
2017-11-30T21:56:40.539Z,27.23
2017-11-30T21:59:07.308Z,30.13
2017-11-30T22:01:34.086Z,33.73
2017-11-30T22:04:00.869Z,33.37
2017-11-30T22:06:27.679Z,30.73
2017-11-30T22:08:54.424Z,29.50
2017-11-30T22:11:21.223Z,20.73
2017-11-30T22:13:47.983Z,30.07
2017-11-30T22:16:14.745Z,20.73
2017-11-30T22:18:41.561Z,20.30
2017-11-30T22:21:08.323Z,19.77
2017-11-30T22:23:35.086Z,20.77
2017-11-30T22:26:01.919Z,18.70
2017-11-30T22:28:28.679Z,20.80
2017-11-30T22:30:55.431Z,11.00
2017-11-30T22:33:22.231Z,14.70
2017-11-30T22:35:48.997Z,15.93
2017-11-30T22:38:15.798Z,12.70
2017-11-30T22:40:42.590Z,9.77
2017-11-30T22:43:09.375Z,12.60
2017-11-30T22:45:36.150Z,9.00
2017-11-30T22:48:02.949Z,9.47
2017-11-30T22:50:29.714Z,10.00
2017-11-30T22:52:56.471Z,7.97
2017-11-30T22:55:23.256Z,8.77
2017-11-30T22:57:50.007Z,7.27
2017-11-30T23:00:16.752Z,11.13
2017-11-30T23:02:43.536Z,7.70
2017-11-30T23:05:10.305Z,15.57
2017-11-30T23:07:37.086Z,16.23
